Time;durP1;ratioP1;P1;durP2;ratioP2;P2;SDS_P1;SDS_P2;PMS_P1;PMS_P2;Temp;Humidity;BMP_temperature;BMP_pressure;BME280_temperature;BME280_humidity;BME280_pressure;Samples;Min_cycle;Max_cycle;Signal;HPM_P1;HPM_P2
2024/03/04 00:02:22;;;;;;;3.13;0.80;;;8.50;97.00;;;;;;6301932;22;38024;-80
2024/03/04 00:04:49;;;;;;;6.03;1.03;;;8.50;93.50;;;;;;6300137;22;38768;-81
2024/03/04 00:07:16;;;;;;;3.70;0.93;;;8.50;92.70;;;;;;6296832;22;36420;-82
2024/03/04 00:09:53;;;;;;;0.97;0.63;;;8.50;93.10;;;;;;6302272;22;39936;-81
2024/03/04 00:12:20;;;;;;;2.90;0.90;;;8.50;95.40;;;;;;6297695;22;37358;-81
2024/03/04 00:14:54;;;;;;;8.07;1.70;;;8.50;93.70;;;;;;6303302;22;37343;-80
2024/03/04 00:17:23;;;;;;;7.63;1.13;;;8.50;93.80;;;;;;6298318;22;37566;-81
2024/03/04 00:19:50;;;;;;;2.77;1.10;;;8.50;93.10;;;;;;6296650;22;39985;-80
2024/03/04 00:22:17;;;;;;;7.00;1.30;;;8.50;93.80;;;;;;6299300;22;39060;-80
2024/03/04 00:24:44;;;;;;;3.57;1.13;;;8.50;93.20;;;;;;6299906;22;38601;-79
2024/03/04 00:27:11;;;;;;;9.17;1.97;;;8.40;92.60;;;;;;6295653;22;38051;-80
2024/03/04 00:29:39;;;;;;;4.90;1.10;;;8.40;93.10;;;;;;6296157;22;37608;-80
2024/03/04 00:32:13;;;;;;;5.63;1.30;;;8.30;92.10;;;;;;6296171;22;39739;-80
2024/03/04 00:34:40;;;;;;;6.77;1.40;;;8.30;89.70;;;;;;6298845;22;38012;-80
2024/03/04 00:37:07;;;;;;;7.93;1.27;;;8.30;84.90;;;;;;6293578;22;37574;-79
2024/03/04 00:39:36;;;;;;;6.77;1.03;;;8.20;79.00;;;;;;6298123;22;38050;-79
2024/03/04 00:42:04;;;;;;;6.20;0.70;;;8.20;79.50;;;;;;6297831;22;40093;-81
2024/03/04 00:44:31;;;;;;;5.90;1.20;;;8.20;71.30;;;;;;6299678;22;37811;-80
2024/03/04 00:46:59;;;;;;;6.03;0.90;;;8.20;65.00;;;;;;6296428;22;37410;-80
2024/03/04 00:49:30;;;;;;;3.53;0.73;;;8.20;67.00;;;;;;6297155;22;38486;-80
2024/03/04 00:51:59;;;;;;;4.30;0.70;;;8.20;67.10;;;;;;6297011;22;40116;-81
2024/03/04 00:54:25;;;;;;;2.73;0.70;;;8.20;67.70;;;;;;6297005;22;37902;-81
2024/03/04 00:56:54;;;;;;;3.83;1.10;;;8.20;68.30;;;;;;6296544;22;36876;-81
2024/03/04 00:59:23;;;;;;;2.17;0.80;;;8.20;68.80;;;;;;6295679;22;39207;-79
2024/03/04 01:01:50;;;;;;;2.70;0.70;;;8.20;72.40;;;;;;6298707;22;37806;-81
2024/03/04 01:04:17;;;;;;;2.80;0.80;;;8.20;73.40;;;;;;6297458;22;38023;-79
2024/03/04 01:06:43;;;;;;;2.00;0.63;;;8.20;74.80;;;;;;6306626;22;38762;-80
2024/03/04 01:09:21;;;;;;;3.67;0.97;;;8.20;74.80;;;;;;6300001;22;39072;-80
2024/03/04 01:11:47;;;;;;;5.87;0.60;;;8.20;79.30;;;;;;6298055;22;39179;-80
2024/03/04 01:14:14;;;;;;;3.57;0.57;;;8.20;68.80;;;;;;6297045;22;38009;-80
2024/03/04 01:16:41;;;;;;;4.17;1.33;;;8.10;63.70;;;;;;6299175;22;36175;-80
2024/03/04 01:19:08;;;;;;;3.03;0.47;;;8.10;60.00;;;;;;6299890;22;38957;-80
2024/03/04 01:21:34;;;;;;;4.07;0.60;;;8.20;53.00;;;;;;6298673;22;37529;-80
2024/03/04 01:24:01;;;;;;;6.67;0.70;;;8.20;51.10;;;;;;6297509;22;38969;-80
2024/03/04 01:26:28;;;;;;;3.33;0.40;;;8.20;47.00;;;;;;6322410;22;47528;-80
2024/03/04 01:28:54;;;;;;;3.53;0.60;;;8.20;40.50;;;;;;6298845;22;40809;-81
2024/03/04 01:31:21;;;;;;;3.53;0.50;;;8.20;34.20;;;;;;6297632;22;37451;-80
2024/03/04 01:33:54;;;;;;;3.87;0.73;;;8.20;31.40;;;;;;6303099;22;38556;-81
2024/03/04 01:36:20;;;;;;;2.23;0.80;;;8.10;33.40;;;;;;6297092;22;38947;-80
2024/03/04 01:38:47;;;;;;;5.57;0.60;;;8.10;31.00;;;;;;6298585;22;38655;-80
2024/03/04 01:41:13;;;;;;;6.63;0.50;;;8.10;24.80;;;;;;6296295;22;37249;-81
2024/03/04 01:43:39;;;;;;;1.03;0.33;;;8.10;20.00;;;;;;6297925;22;37489;-81
2024/03/04 01:46:08;;;;;;;2.67;0.53;;;8.10;19.00;;;;;;6296517;22;36132;-81
2024/03/04 01:48:36;;;;;;;2.13;0.70;;;8.10;20.40;;;;;;6296117;22;37386;-81
2024/03/04 01:51:04;;;;;;;1.50;0.30;;;8.10;15.80;;;;;;6295668;22;38619;-80
2024/03/04 01:53:31;;;;;;;4.67;0.53;;;8.10;11.00;;;;;;6296240;22;38013;-80
2024/03/04 01:56:02;;;;;;;3.00;0.40;;;8.20;8.90;;;;;;6293279;22;36418;-79
2024/03/04 01:58:30;;;;;;;3.53;0.50;;;8.20;8.80;;;;;;6296972;22;47611;-79
2024/03/04 02:03:36;;;;;;;3.30;0.50;;;8.20;8.90;;;;;;6279927;22;20023;-81
2024/03/04 02:34:38;;;;;;;3.30;0.40;;;8.20;1.00;;;;;;6213175;22;21028;-79
2024/03/04 02:42:17;;;;;;;3.93;0.50;;;8.20;1.00;;;;;;6219616;22;20016;-80
2024/03/04 02:44:45;;;;;;;3.30;0.40;;;8.10;1.00;;;;;;6283234;22;37555;-78
2024/03/04 02:47:11;;;;;;;1.10;0.50;;;8.10;1.00;;;;;;6281824;22;36729;-79
2024/03/04 02:49:37;;;;;;;4.83;0.50;;;8.20;1.00;;;;;;6286245;22;38891;-79
2024/03/04 02:52:04;;;;;;;4.07;0.50;;;8.10;1.00;;;;;;6283866;22;39635;-78
2024/03/04 02:54:30;;;;;;;1.77;0.40;;;8.10;1.00;;;;;;6284675;22;38304;-80
2024/03/04 02:56:56;;;;;;;2.23;0.37;;;8.10;1.00;;;;;;6279522;22;36140;-79
2024/03/04 02:59:23;;;;;;;4.87;0.40;;;8.10;1.00;;;;;;6279964;22;38018;-79
2024/03/04 03:01:49;;;;;;;6.00;1.83;;;8.10;1.00;;;;;;6286401;22;38922;-79
2024/03/04 03:04:15;;;;;;;1.83;0.43;;;8.10;1.00;;;;;;6283744;22;36912;-78
2024/03/04 03:06:45;;;;;;;2.23;0.30;;;8.00;1.00;;;;;;6286839;22;37222;-78
2024/03/04 03:09:14;;;;;;;1.67;0.27;;;8.00;1.00;;;;;;6284628;22;39346;-79
2024/03/04 03:11:40;;;;;;;3.67;0.43;;;8.00;1.00;;;;;;6288940;22;39302;-80
2024/03/04 03:14:07;;;;;;;3.23;0.50;;;8.00;1.00;;;;;;6289229;22;37789;-80
2024/03/04 03:16:33;;;;;;;4.07;0.40;;;8.00;1.00;;;;;;6289618;22;37173;-79
2024/03/04 03:18:59;;;;;;;1.77;0.43;;;8.00;1.00;;;;;;6287356;22;37942;-79
2024/03/04 03:21:29;;;;;;;4.20;0.40;;;8.00;1.00;;;;;;6284419;22;39521;-79
2024/03/04 03:23:55;;;;;;;2.63;0.57;;;8.00;1.00;;;;;;6283578;22;37905;-80
2024/03/04 03:26:27;;;;;;;1.60;0.30;;;7.90;1.00;;;;;;6281825;22;36192;-79
2024/03/04 03:28:54;;;;;;;4.20;0.70;;;8.00;1.00;;;;;;6280870;22;39408;-78
2024/03/04 03:31:22;;;;;;;2.20;0.50;;;8.00;1.00;;;;;;6280385;22;40092;-78
2024/03/04 03:33:49;;;;;;;5.60;0.50;;;7.90;1.00;;;;;;6281350;22;38732;-79
2024/03/04 03:36:15;;;;;;;3.87;0.80;;;7.90;3.90;;;;;;6279899;22;35720;-78
2024/03/04 03:38:42;;;;;;;2.33;0.50;;;7.90;3.70;;;;;;6284126;22;38486;-78
2024/03/04 03:41:08;;;;;;;3.97;0.60;;;7.90;7.60;;;;;;6283705;22;38380;-79
2024/03/04 03:43:34;;;;;;;1.63;0.40;;;7.90;8.80;;;;;;6283684;22;39518;-78
2024/03/04 03:46:01;;;;;;;4.67;1.10;;;8.00;10.80;;;;;;6281127;22;38808;-78
2024/03/04 03:48:27;;;;;;;2.80;0.73;;;8.00;8.30;;;;;;6280956;22;48430;-79
2024/03/04 03:50:54;;;;;;;2.20;0.30;;;7.90;12.30;;;;;;6280359;22;37974;-78
2024/03/04 03:53:22;;;;;;;2.10;0.60;;;8.00;12.20;;;;;;6276471;22;37508;-78
2024/03/04 03:55:49;;;;;;;2.90;0.70;;;8.00;13.20;;;;;;6276983;22;36291;-80
2024/03/04 03:58:15;;;;;;;5.37;0.80;;;7.90;13.50;;;;;;6281623;22;40481;-79
2024/03/04 04:00:43;;;;;;;1.60;0.50;;;7.90;12.60;;;;;;6279478;22;37244;-80
2024/03/04 04:03:09;;;;;;;4.33;0.73;;;8.00;15.10;;;;;;6280342;22;37235;-79
2024/03/04 04:05:35;;;;;;;3.80;0.60;;;7.90;18.40;;;;;;6278820;22;36285;-78
2024/03/04 04:08:01;;;;;;;5.37;0.57;;;8.00;15.50;;;;;;6283880;22;39680;-78
2024/03/04 04:10:28;;;;;;;4.67;0.57;;;8.00;15.40;;;;;;6281509;22;38349;-79
2024/03/04 04:12:54;;;;;;;2.30;0.60;;;8.00;16.30;;;;;;6283287;22;39221;-79
2024/03/04 04:15:20;;;;;;;3.93;0.60;;;8.00;17.80;;;;;;6281347;22;36488;-79
2024/03/04 04:17:47;;;;;;;3.33;0.43;;;8.00;18.20;;;;;;6282831;22;37900;-79
2024/03/04 04:20:13;;;;;;;3.00;0.70;;;7.90;19.90;;;;;;6282123;22;37684;-79
2024/03/04 04:22:40;;;;;;;2.90;0.50;;;8.00;19.20;;;;;;6278253;22;37077;-79
2024/03/04 04:25:07;;;;;;;3.20;0.60;;;8.00;19.50;;;;;;6275651;22;37534;-78
2024/03/04 04:27:33;;;;;;;3.60;0.80;;;8.00;19.00;;;;;;6278952;22;40560;-79
2024/03/04 04:29:59;;;;;;;2.57;0.47;;;8.00;21.10;;;;;;6280930;22;39068;-79
2024/03/04 04:32:27;;;;;;;3.03;0.70;;;7.90;24.30;;;;;;6278090;22;38774;-79
2024/03/04 04:34:54;;;;;;;4.57;0.50;;;8.00;24.60;;;;;;6280901;22;36507;-79
2024/03/04 04:37:20;;;;;;;4.00;0.67;;;8.00;27.90;;;;;;6281664;22;38782;-79
2024/03/04 04:39:47;;;;;;;2.77;0.67;;;8.00;26.40;;;;;;6282795;22;38794;-79
2024/03/04 04:42:14;;;;;;;9.60;1.23;;;8.00;27.00;;;;;;6221534;22;1305497;-80
2024/03/04 04:44:41;;;;;;;5.20;0.90;;;7.90;27.50;;;;;;6284143;22;37864;-79
2024/03/04 04:47:08;;;;;;;3.37;0.70;;;8.00;30.00;;;;;;6280594;22;38108;-78
2024/03/04 04:49:36;;;;;;;5.10;0.50;;;7.90;32.70;;;;;;6279165;22;37523;-80
2024/03/04 04:52:03;;;;;;;4.50;1.20;;;7.90;32.80;;;;;;6278208;22;37453;-79
2024/03/04 04:54:29;;;;;;;2.00;0.63;;;8.00;35.10;;;;;;6278476;22;37745;-78
2024/03/04 04:56:55;;;;;;;3.47;0.83;;;8.00;33.20;;;;;;6281083;22;39047;-79
2024/03/04 04:59:22;;;;;;;4.83;0.80;;;8.00;30.60;;;;;;6283262;22;40079;-78
2024/03/04 05:01:48;;;;;;;4.50;0.60;;;8.00;28.30;;;;;;6281227;22;38242;-78
2024/03/04 05:04:14;;;;;;;3.87;0.50;;;8.00;27.40;;;;;;6279835;22;38226;-78
2024/03/04 05:06:41;;;;;;;1.97;0.63;;;8.00;23.00;;;;;;6284430;22;37680;-79
2024/03/04 05:09:08;;;;;;;6.97;1.10;;;8.00;24.90;;;;;;6284500;22;38432;-79
2024/03/04 05:11:34;;;;;;;3.50;0.70;;;8.00;27.10;;;;;;6285518;22;37980;-79
2024/03/04 05:14:00;;;;;;;2.73;1.00;;;8.00;26.70;;;;;;6280225;22;37783;-78
2024/03/04 05:16:27;;;;;;;11.83;1.97;;;8.00;24.40;;;;;;6282568;22;41181;-79
2024/03/04 05:18:53;;;;;;;3.00;0.53;;;8.00;29.70;;;;;;6281272;22;38716;-79
2024/03/04 05:21:19;;;;;;;5.67;0.80;;;8.00;27.60;;;;;;6282139;22;36563;-79
2024/03/04 05:23:45;;;;;;;5.73;0.87;;;8.00;29.00;;;;;;6282580;22;36591;-79
2024/03/04 05:26:11;;;;;;;4.33;0.80;;;8.00;28.40;;;;;;6283963;22;38136;-79
2024/03/04 05:28:37;;;;;;;3.20;0.77;;;8.00;31.30;;;;;;6286127;22;40162;-79
2024/03/04 05:31:03;;;;;;;3.83;0.80;;;8.00;31.60;;;;;;6281456;22;39036;-78
2024/03/04 05:33:29;;;;;;;4.37;0.80;;;8.00;33.00;;;;;;6279891;22;38119;-78
2024/03/04 05:35:56;;;;;;;4.57;1.07;;;7.90;30.80;;;;;;6281824;22;40457;-79
2024/03/04 05:38:23;;;;;;;3.40;0.80;;;7.90;30.90;;;;;;6282873;22;39201;-78
2024/03/04 05:40:50;;;;;;;3.50;0.70;;;8.00;35.40;;;;;;6269843;22;38822;-78
2024/03/04 05:43:16;;;;;;;6.50;0.90;;;8.00;34.80;;;;;;6277436;22;37178;-78
2024/03/04 05:45:42;;;;;;;3.43;0.77;;;7.90;32.70;;;;;;6277847;22;37726;-80
2024/03/04 05:48:09;;;;;;;4.00;1.87;;;8.00;29.40;;;;;;6278236;22;40260;-78
2024/03/04 05:50:37;;;;;;;7.83;1.00;;;7.90;31.80;;;;;;6278791;22;38818;-79
2024/03/04 05:53:03;;;;;;;3.17;0.70;;;7.90;27.70;;;;;;6283844;22;37969;-79
2024/03/04 05:55:30;;;;;;;2.20;0.80;;;7.90;31.00;;;;;;6283265;22;38182;-79
2024/03/04 05:57:56;;;;;;;3.40;0.93;;;7.90;33.80;;;;;;6286427;22;39070;-78
2024/03/04 06:00:23;;;;;;;3.63;0.90;;;7.90;36.40;;;;;;6284195;22;38896;-79
2024/03/04 06:02:49;;;;;;;2.90;0.97;;;7.90;36.30;;;;;;6284354;22;36516;-78
2024/03/04 06:05:15;;;;;;;3.57;1.50;;;7.90;38.10;;;;;;6281737;22;37691;-80
2024/03/04 06:07:42;;;;;;;3.97;0.80;;;7.90;37.60;;;;;;6279201;22;38759;-79
2024/03/04 06:10:09;;;;;;;5.40;1.40;;;7.90;38.20;;;;;;6281607;22;39333;-78
2024/03/04 06:12:35;;;;;;;4.50;1.57;;;7.90;38.90;;;;;;6277740;22;37795;-79
2024/03/04 06:15:02;;;;;;;3.07;1.20;;;7.90;38.40;;;;;;6278578;22;38210;-79
2024/03/04 06:17:28;;;;;;;3.33;1.23;;;7.90;37.10;;;;;;6283224;22;38330;-79
2024/03/04 06:19:54;;;;;;;7.20;1.77;;;7.90;35.70;;;;;;6278666;22;40427;-79
2024/03/04 06:22:22;;;;;;;4.37;1.90;;;7.90;36.70;;;;;;6277950;22;38227;-79
2024/03/04 06:24:48;;;;;;;4.43;1.90;;;7.90;33.40;;;;;;6282053;22;37069;-79
2024/03/04 06:27:14;;;;;;;4.60;2.07;;;7.90;29.40;;;;;;6287608;22;37620;-79
2024/03/04 06:29:41;;;;;;;3.87;2.03;;;7.90;28.40;;;;;;6286536;22;36945;-80
2024/03/04 06:32:07;;;;;;;3.37;1.73;;;7.90;32.30;;;;;;6282117;22;38573;-78
2024/03/04 06:34:34;;;;;;;4.37;2.83;;;7.90;32.50;;;;;;6281682;22;39237;-79
2024/03/04 06:37:00;;;;;;;5.03;2.90;;;7.90;27.30;;;;;;6286145;22;38433;-79
2024/03/04 06:39:27;;;;;;;10.43;3.20;;;7.90;23.40;;;;;;6281005;22;37147;-79
2024/03/04 06:41:53;;;;;;;7.53;3.27;;;8.00;18.70;;;;;;6280858;22;37169;-80
2024/03/04 06:44:20;;;;;;;6.90;3.40;;;8.00;16.70;;;;;;6273924;22;39163;-75
2024/03/04 06:46:46;;;;;;;4.83;3.00;;;8.00;11.10;;;;;;6269523;22;38937;-79
2024/03/04 06:49:12;;;;;;;7.67;3.57;;;8.00;7.40;;;;;;6263090;22;39115;-78
2024/03/04 06:51:39;;;;;;;9.70;3.03;;;8.00;3.60;;;;;;6272428;22;37574;-78
2024/03/04 06:54:06;;;;;;;7.00;2.77;;;8.00;5.40;;;;;;6272844;22;38599;-79
2024/03/04 06:56:33;;;;;;;5.33;2.70;;;8.00;4.40;;;;;;6276736;22;38742;-79
2024/03/04 06:59:03;;;;;;;8.57;2.47;;;8.00;6.70;;;;;;6275025;22;38230;-79
2024/03/04 07:01:30;;;;;;;5.90;2.93;;;8.00;13.40;;;;;;6271253;22;48983;-79
2024/03/04 07:03:56;;;;;;;6.30;2.63;;;8.00;17.10;;;;;;6268794;22;39914;-77
2024/03/04 07:06:23;;;;;;;4.83;2.87;;;8.00;19.90;;;;;;6257473;22;39882;-77
2024/03/04 07:08:49;;;;;;;3.77;2.63;;;8.00;20.40;;;;;;6259339;22;39212;-76
2024/03/04 07:11:19;;;;;;;2.70;2.50;;;8.10;22.00;;;;;;6257354;22;37719;-78
2024/03/04 07:13:45;;;;;;;4.60;2.83;;;8.10;23.30;;;;;;6262089;22;39456;-76
2024/03/04 07:16:17;;;;;;;4.73;2.80;;;8.10;22.60;;;;;;6258257;22;39317;-78
2024/03/04 07:18:44;;;;;;;4.78;3.15;;;8.10;20.70;;;;;;6261221;22;38078;-78
2024/03/04 07:21:17;;;;;;;4.53;3.23;;;8.20;21.50;;;;;;6263565;22;37618;-77
2024/03/04 07:23:43;;;;;;;5.57;3.07;;;8.20;22.10;;;;;;6265459;22;38924;-77
2024/03/04 07:26:16;;;;;;;4.07;2.90;;;8.30;21.50;;;;;;6260221;22;39763;-77
2024/03/04 07:28:43;;;;;;;10.70;3.60;;;8.30;20.60;;;;;;6265401;22;38761;-77
2024/03/04 07:31:12;;;;;;;4.73;3.00;;;8.30;22.90;;;;;;6260496;22;36407;-78
2024/03/04 07:33:38;;;;;;;5.37;3.17;;;8.40;23.10;;;;;;6258881;22;39737;-77
2024/03/04 07:36:05;;;;;;;7.77;3.77;;;8.40;22.60;;;;;;6264360;22;37770;-77
2024/03/04 07:38:32;;;;;;;7.50;4.80;;;8.50;26.70;;;;;;6261375;22;37265;-77
2024/03/04 07:40:58;;;;;;;6.53;4.20;;;8.50;26.10;;;;;;6266919;22;37704;-77
2024/03/04 07:43:24;;;;;;;5.63;4.20;;;8.50;27.80;;;;;;6260433;22;39519;-77
2024/03/04 07:45:50;;;;;;;7.57;4.83;;;8.60;28.40;;;;;;6260550;22;39724;-79
2024/03/04 07:48:16;;;;;;;5.87;4.40;;;8.60;26.50;;;;;;6259359;22;39315;-78
2024/03/04 07:50:43;;;;;;;6.77;4.87;;;8.60;23.30;;;;;;6259743;22;39032;-78
2024/03/04 07:53:09;;;;;;;7.07;4.27;;;8.50;19.70;;;;;;6260925;22;38045;-77
2024/03/04 07:55:35;;;;;;;9.53;4.83;;;8.60;22.30;;;;;;6260435;22;37183;-78
2024/03/04 07:58:01;;;;;;;7.00;4.63;;;8.60;23.00;;;;;;6257719;22;38803;-78
2024/03/04 08:00:32;;;;;;;8.47;4.70;;;8.50;22.70;;;;;;6255377;22;39106;-77
2024/03/04 08:02:59;;;;;;;7.47;4.60;;;8.60;23.30;;;;;;6294714;22;39000;-78
2024/03/04 08:05:25;;;;;;;8.53;4.87;;;8.50;22.10;;;;;;6259433;22;39435;-78
2024/03/04 08:07:51;;;;;;;6.77;4.50;;;8.50;20.30;;;;;;6262678;22;38509;-78
2024/03/04 08:10:17;;;;;;;9.00;4.97;;;8.50;26.00;;;;;;6260817;22;37883;-77
2024/03/04 08:12:43;;;;;;;7.30;4.67;;;8.50;29.70;;;;;;6263987;22;38801;-78
2024/03/04 08:15:10;;;;;;;8.17;4.97;;;8.60;31.90;;;;;;6263747;22;39611;-78
2024/03/04 08:17:36;;;;;;;9.17;4.60;;;8.60;29.80;;;;;;6265568;22;38136;-78
2024/03/04 08:20:04;;;;;;;9.30;5.37;;;8.50;29.50;;;;;;6264782;22;36473;-77
2024/03/04 08:22:32;;;;;;;9.23;5.83;;;8.50;31.90;;;;;;6266235;22;38540;-78
2024/03/04 08:24:58;;;;;;;9.47;5.23;;;8.40;31.00;;;;;;6268178;22;38137;-78
2024/03/04 08:27:24;;;;;;;11.70;5.13;;;8.50;33.50;;;;;;6255665;22;37878;-78
2024/03/04 08:29:50;;;;;;;7.80;5.60;;;8.50;33.10;;;;;;6257381;22;38063;-76
2024/03/04 08:32:17;;;;;;;12.10;5.90;;;8.50;28.90;;;;;;6259005;22;39084;-77
2024/03/04 08:34:47;;;;;;;7.30;5.30;;;8.50;32.80;;;;;;6259544;22;38626;-78
2024/03/04 08:37:13;;;;;;;10.87;5.67;;;8.60;36.80;;;;;;6256909;22;37580;-77
2024/03/04 08:39:40;;;;;;;10.67;5.60;;;8.60;32.10;;;;;;6257226;22;39139;-77
2024/03/04 08:42:07;;;;;;;11.87;6.90;;;8.60;29.30;;;;;;6258685;22;38062;-78
2024/03/04 08:44:33;;;;;;;10.00;6.23;;;8.70;31.40;;;;;;6266054;22;38618;-78
2024/03/04 08:46:59;;;;;;;8.00;5.33;;;8.70;28.50;;;;;;6256658;22;38608;-76
2024/03/04 08:49:25;;;;;;;9.43;6.10;;;8.70;30.70;;;;;;6257251;22;36183;-77
2024/03/04 08:51:51;;;;;;;7.57;5.27;;;8.80;32.80;;;;;;6259377;22;39323;-78
2024/03/04 08:54:17;;;;;;;7.43;5.90;;;8.80;30.10;;;;;;6265163;22;38309;-77
2024/03/04 08:56:44;;;;;;;5.90;5.07;;;8.80;38.40;;;;;;6266648;22;39179;-78
2024/03/04 08:59:10;;;;;;;8.20;5.73;;;8.90;41.90;;;;;;6262134;22;36164;-78
2024/03/04 09:01:36;;;;;;;9.50;5.60;;;9.10;36.90;;;;;;6261232;22;38828;-77
2024/03/04 09:04:03;;;;;;;8.73;6.22;;;9.20;28.20;;;;;;6264151;22;37729;-79
2024/03/04 09:06:29;;;;;;;8.40;5.47;;;9.20;20.20;;;;;;6265260;22;38522;-79
2024/03/04 09:08:57;;;;;;;8.02;5.88;;;9.20;19.50;;;;;;6263000;22;37202;-77
2024/03/04 09:11:24;;;;;;;7.45;5.45;;;9.30;25.50;;;;;;6262290;22;37840;-77
2024/03/04 09:13:50;;;;;;;10.07;6.43;;;9.30;24.40;;;;;;6264956;22;38406;-77
2024/03/04 09:16:17;;;;;;;7.68;5.47;;;9.50;25.20;;;;;;6264895;22;38030;-78
2024/03/04 09:18:43;;;;;;;8.38;5.40;;;9.70;21.10;;;;;;6264144;22;36316;-79
2024/03/04 09:21:09;;;;;;;6.68;5.07;;;9.80;12.70;;;;;;6261994;22;40212;-77
2024/03/04 09:23:38;;;;;;;7.90;5.13;;;9.80;2.80;;;;;;6265588;22;37845;-78
2024/03/04 09:26:09;;;;;;;7.82;5.05;;;9.90;2.50;;;;;;6264598;22;37421;-78
2024/03/04 09:28:36;;;;;;;10.32;5.05;;;10.00;6.40;;;;;;6265797;22;37545;-78
2024/03/04 09:31:02;;;;;;;9.00;5.68;;;10.10;1.00;;;;;;6264129;22;40943;-78
2024/03/04 09:33:28;;;;;;;8.40;5.60;;;10.10;1.00;;;;;;6269268;22;39275;-77
2024/03/04 09:35:55;;;;;;;10.57;6.28;;;10.10;1.00;;;;;;6268349;22;38436;-78
2024/03/04 09:38:21;;;;;;;6.63;5.18;;;10.10;1.00;;;;;;6264719;22;37384;-77
2024/03/04 09:40:51;;;;;;;8.13;5.03;;;10.10;1.00;;;;;;6262092;22;37846;-78
2024/03/04 09:43:20;;;;;;;9.98;5.50;;;10.30;1.00;;;;;;6272804;22;39256;-81
2024/03/04 09:45:50;;;;;;;11.55;6.15;;;10.40;1.00;;;;;;6295595;22;37720;-82
2024/03/04 09:48:17;;;;;;;8.95;5.82;;;10.40;1.00;;;;;;6297408;22;38712;-80
2024/03/04 09:50:43;;;;;;;10.10;6.22;;;10.40;1.00;;;;;;6291150;22;37326;-80
2024/03/04 09:53:11;;;;;;;11.82;6.60;;;10.50;1.00;;;;;;6291222;22;38692;-80
2024/03/04 09:55:38;;;;;;;9.57;6.43;;;10.30;1.00;;;;;;6290970;22;37574;-80
2024/03/04 09:58:07;;;;;;;10.48;6.28;;;10.50;1.00;;;;;;6291063;22;38096;-81
2024/03/04 10:00:35;;;;;;;8.93;6.35;;;10.80;1.00;;;;;;6295465;22;38863;-81
2024/03/04 10:03:05;;;;;;;8.88;7.00;;;10.80;1.00;;;;;;6292664;22;37125;-80
2024/03/04 10:05:32;;;;;;;10.10;6.85;;;10.40;1.00;;;;;;6293244;22;36867;-82
2024/03/04 10:07:58;;;;;;;12.52;7.22;;;10.60;1.00;;;;;;6303722;22;38447;-81
2024/03/04 10:10:33;;;;;;;9.32;6.75;;;10.40;1.00;;;;;;6305858;22;39826;-80
2024/03/04 10:13:10;;;;;;;7.72;6.15;;;10.60;1.00;;;;;;6306611;22;38816;-81
2024/03/04 10:20:54;;;;;;;13.98;6.13;;;11.10;1.00;;;;;;6242793;22;20205;-81
2024/03/04 10:28:40;;;;;;;8.65;5.10;;;11.40;1.00;;;;;;6221937;22;20980;-80
2024/03/04 10:31:28;;;;;;;7.30;5.25;;;11.60;1.00;;;;;;6263921;22;39023;-80
2024/03/04 10:41:46;;;;;;;6.40;4.20;;;11.50;1.00;;;;;;6252263;22;20000;-81
2024/03/04 10:57:31;;;;;;;6.15;3.30;;;11.70;1.00;;;;;;6220355;22;20017;-80
2024/03/04 11:00:32;;;;;;;7.53;4.20;;;11.90;99.90;;;;;;6305438;22;37141;-80
2024/03/04 11:05:39;;;;;;;6.20;4.03;;;11.80;99.90;;;;;;6235658;22;20016;-81
2024/03/04 11:08:15;;;;;;;4.75;3.17;;;11.70;70.70;;;;;;6304489;22;38654;-80
2024/03/04 11:23:43;;;;;;;4.68;2.80;;;11.60;1.00;;;;;;6246822;22;20198;-77
2024/03/04 11:26:13;;;;;;;4.25;2.47;;;11.80;1.00;;;;;;6262275;22;38925;-78
2024/03/04 11:28:40;;;;;;;3.38;2.42;;;11.90;1.00;;;;;;6256593;22;38521;-78
2024/03/04 11:31:11;;;;;;;7.10;3.33;;;12.00;1.00;;;;;;6259410;22;38055;-78
2024/03/04 11:33:41;;;;;;;5.13;2.85;;;12.00;99.90;;;;;;6243594;22;38773;-78
2024/03/04 11:36:09;;;;;;;4.97;3.40;;;12.00;91.10;;;;;;6259995;22;39104;-78
2024/03/04 11:38:44;;;;;;;5.03;3.20;;;11.80;99.90;;;;;;6259485;22;38565;-78
2024/03/04 11:41:11;;;;;;;7.40;3.67;;;12.00;99.90;;;;;;6259081;22;36419;-78
2024/03/04 11:43:48;;;;;;;4.68;3.33;;;12.20;1.00;;;;;;6263010;22;40643;-77
2024/03/04 11:46:19;;;;;;;5.75;3.60;;;12.30;66.60;;;;;;6263425;22;38683;-79
2024/03/04 11:48:48;;;;;;;4.57;3.30;;;12.30;99.90;;;;;;6262837;22;39243;-78
2024/03/04 11:51:55;;;;;;;7.25;3.75;;;12.40;16.60;;;;;;6259383;22;36114;-77
2024/03/04 11:54:33;;;;;;;9.40;4.90;;;12.40;99.90;;;;;;6253602;22;39603;-78
2024/03/04 11:57:00;;;;;;;8.45;4.57;;;12.50;49.10;;;;;;6265111;22;39413;-78
2024/03/04 11:59:30;;;;;;;6.95;5.18;;;12.70;1.00;;;;;;6270272;22;39048;-80
2024/03/04 12:01:56;;;;;;;7.38;5.30;;;12.60;1.00;;;;;;6262818;22;37614;-78
2024/03/04 12:04:25;;;;;;;7.88;5.95;;;12.70;99.90;;;;;;6264286;22;40343;-78
2024/03/04 12:06:52;;;;;;;8.73;5.72;;;12.70;99.90;;;;;;6267129;22;38149;-78
2024/03/04 12:09:19;;;;;;;10.95;6.63;;;12.90;1.00;;;;;;6259771;22;39040;-78
2024/03/04 12:11:45;;;;;;;10.15;6.65;;;12.80;56.20;;;;;;6262401;22;37861;-78
2024/03/04 12:14:11;;;;;;;9.40;6.47;;;12.60;1.00;;;;;;6263920;22;40250;-78
2024/03/04 12:16:38;;;;;;;9.65;6.32;;;12.70;1.00;;;;;;6261192;22;39281;-78
2024/03/04 12:19:08;;;;;;;9.32;6.72;;;12.90;1.00;;;;;;6259470;22;38956;-78
2024/03/04 12:21:37;;;;;;;7.53;5.47;;;13.00;93.70;;;;;;6266999;22;37406;-79
2024/03/04 12:24:04;;;;;;;8.45;6.20;;;13.10;99.90;;;;;;6285330;22;39583;-79
2024/03/04 12:26:30;;;;;;;8.23;5.78;;;13.10;1.00;;;;;;6292540;22;38569;-79
2024/03/04 12:29:00;;;;;;;8.68;6.53;;;13.00;1.00;;;;;;6298934;22;39316;-79
2024/03/04 12:31:33;;;;;;;9.85;6.93;;;13.00;23.10;;;;;;6294453;22;36968;-79
2024/03/04 12:34:03;;;;;;;11.13;6.93;;;13.00;53.10;;;;;;6298708;22;41017;-80
2024/03/04 12:36:30;;;;;;;8.30;6.57;;;12.80;1.00;;;;;;6287890;22;48909;-80
2024/03/04 12:38:56;;;;;;;7.15;6.00;;;12.90;1.00;;;;;;6288669;22;38492;-79
2024/03/04 12:41:25;;;;;;;7.30;5.82;;;13.20;99.90;;;;;;6288265;22;37002;-80
2024/03/04 12:43:55;;;;;;;6.70;5.45;;;13.30;1.00;;;;;;6295425;22;40799;-80
2024/03/04 12:46:22;;;;;;;8.27;5.78;;;13.30;1.00;;;;;;6287195;22;38907;-79
2024/03/04 12:48:49;;;;;;;7.88;5.32;;;13.30;1.00;;;;;;6296974;22;39588;-81
2024/03/04 12:51:16;;;;;;;9.90;5.70;;;13.50;1.00;;;;;;6295561;22;37801;-80
2024/03/04 12:53:44;;;;;;;6.22;3.90;;;13.60;1.00;;;;;;6298538;22;38144;-81
2024/03/04 12:56:12;;;;;;;7.32;4.57;;;13.60;1.00;;;;;;6297620;22;39546;-79
2024/03/04 12:58:41;;;;;;;9.35;5.05;;;13.50;1.00;;;;;;6291786;22;37136;-80
2024/03/04 13:01:17;;;;;;;6.32;5.03;;;13.50;1.00;;;;;;6291211;22;36400;-80
2024/03/04 13:03:50;;;;;;;5.15;4.65;;;13.50;99.90;;;;;;6296635;22;38004;-80
2024/03/04 13:06:17;;;;;;;6.25;5.10;;;13.70;68.10;;;;;;6291559;22;37869;-81
2024/03/04 13:08:44;;;;;;;6.25;4.35;;;13.60;1.00;;;;;;6293834;22;37607;-80
2024/03/04 13:11:12;;;;;;;7.50;4.60;;;13.60;99.90;;;;;;6289860;22;36240;-79
2024/03/04 13:13:51;;;;;;;5.40;4.05;;;13.70;1.00;;;;;;6278388;22;39772;-80
2024/03/04 13:22:14;;;;;;;6.70;4.13;;;13.80;1.00;;;;;;6228709;22;20021;-82
2024/03/04 13:33:17;;;;;;;3.50;1.83;;;13.90;1.00;;;;;;6207941;22;20029;-80
2024/03/04 14:02:26;;;;;;;4.28;3.50;;;13.80;99.90;;;;;;6230187;22;20696;-82
2024/03/04 14:05:04;;;;;;;5.85;3.50;;;13.80;50.30;;;;;;6268102;22;36065;-80
2024/03/04 14:07:38;;;;;;;4.97;3.20;;;14.00;26.50;;;;;;6253814;22;38495;-81
2024/03/04 14:10:15;;;;;;;4.00;2.80;;;14.00;1.00;;;;;;6250509;22;39117;-80
2024/03/04 14:12:47;;;;;;;4.32;2.80;;;13.60;1.00;;;;;;6246967;22;47758;-80
2024/03/04 14:15:51;;;;;;;3.95;2.50;;;13.40;1.00;;;;;;6259157;22;38802;-80
2024/03/04 14:18:28;;;;;;;3.75;2.95;;;13.40;1.00;;;;;;6240107;22;39683;-80
2024/03/04 14:21:45;;;;;;;5.57;3.92;;;13.60;99.90;;;;;;6241437;22;39794;-81
2024/03/04 14:24:24;;;;;;;5.68;3.63;;;13.60;99.90;;;;;;6141205;22;38831;-79
2024/03/04 14:27:05;;;;;;;6.63;3.90;;;13.60;99.90;;;;;;6257960;22;38729;-79
2024/03/04 14:29:35;;;;;;;5.63;3.85;;;13.50;99.90;;;;;;6233412;22;50226;-80
2024/03/04 14:32:12;;;;;;;6.68;3.60;;;13.60;1.00;;;;;;6213150;22;38017;-81
2024/03/04 14:34:42;;;;;;;4.95;3.33;;;13.50;99.90;;;;;;6221256;22;47766;-80
2024/03/04 14:37:17;;;;;;;4.03;2.95;;;13.40;99.90;;;;;;6237690;22;37676;-79
2024/03/04 14:40:15;;;;;;;4.45;2.60;;;13.10;50.40;;;;;;6267574;22;39563;-81
2024/03/04 14:42:54;;;;;;;2.88;2.40;;;13.00;99.90;;;;;;6238455;22;49208;-79
2024/03/04 14:45:25;;;;;;;2.78;2.53;;;13.00;99.90;;;;;;6254661;22;38560;-80
2024/03/04 14:47:55;;;;;;;4.07;3.03;;;13.00;99.90;;;;;;6258767;22;37685;-80
2024/03/04 14:50:23;;;;;;;4.43;2.47;;;12.90;99.90;;;;;;6198127;22;39295;-80
2024/03/04 14:52:52;;;;;;;3.47;2.92;;;12.90;99.90;;;;;;6210897;23;40067;-81
2024/03/04 14:55:18;;;;;;;4.68;2.90;;;12.90;1.00;;;;;;6205666;22;38534;-79
2024/03/04 14:57:44;;;;;;;4.25;3.22;;;12.90;99.90;;;;;;6206828;23;37262;-81
2024/03/04 15:00:11;;;;;;;4.93;3.08;;;12.90;1.00;;;;;;6211212;23;38315;-80
2024/03/04 15:02:52;;;;;;;4.03;2.88;;;12.80;1.00;;;;;;6211492;22;39414;-81
2024/03/04 15:05:19;;;;;;;5.15;2.63;;;12.90;99.90;;;;;;6237928;22;38378;-80
2024/03/04 15:07:49;;;;;;;3.65;2.75;;;12.80;1.00;;;;;;6210940;22;37360;-79